sensor_id;sensor_type;location;lat;lon;timestamp;temperature;humidity
22734;DHT22;11534;51.994;5.692;2023-10-19T00:01:07;10.50;99.90
22734;DHT22;11534;51.994;5.692;2023-10-19T00:03:34;10.50;99.90
22734;DHT22;11534;51.994;5.692;2023-10-19T00:06:00;10.50;99.90
22734;DHT22;11534;51.994;5.692;2023-10-19T00:08:26;10.60;99.90
22734;DHT22;11534;51.994;5.692;2023-10-19T00:11:02;10.60;99.90
22734;DHT22;11534;51.994;5.692;2023-10-19T00:13:35;10.60;99.90
22734;DHT22;11534;51.994;5.692;2023-10-19T00:16:04;10.60;99.90
22734;DHT22;11534;51.994;5.692;2023-10-19T00:18:37;10.60;99.90
22734;DHT22;11534;51.994;5.692;2023-10-19T00:21:07;10.60;99.90
22734;DHT22;11534;51.994;5.692;2023-10-19T00:23:54;10.60;99.90
22734;DHT22;11534;51.994;5.692;2023-10-19T00:26:23;10.70;99.90
22734;DHT22;11534;51.994;5.692;2023-10-19T00:28:52;10.70;99.90
22734;DHT22;11534;51.994;5.692;2023-10-19T00:31:21;10.70;99.90
22734;DHT22;11534;51.994;5.692;2023-10-19T00:33:47;10.70;99.90
22734;DHT22;11534;51.994;5.692;2023-10-19T00:36:13;10.80;99.90
22734;DHT22;11534;51.994;5.692;2023-10-19T00:38:39;10.80;99.90
22734;DHT22;11534;51.994;5.692;2023-10-19T00:41:09;10.80;99.90
22734;DHT22;11534;51.994;5.692;2023-10-19T00:43:39;10.80;99.90
22734;DHT22;11534;51.994;5.692;2023-10-19T00:46:19;10.80;99.90
22734;DHT22;11534;51.994;5.692;2023-10-19T00:48:53;10.80;99.90
22734;DHT22;11534;51.994;5.692;2023-10-19T00:51:25;10.80;99.90
22734;DHT22;11534;51.994;5.692;2023-10-19T00:54:23;10.80;99.90
22734;DHT22;11534;51.994;5.692;2023-10-19T00:56:56;10.90;99.90
22734;DHT22;11534;51.994;5.692;2023-10-19T00:59:24;10.90;99.90
22734;DHT22;11534;51.994;5.692;2023-10-19T01:01:56;10.90;99.90
22734;DHT22;11534;51.994;5.692;2023-10-19T01:04:40;11.00;99.90
22734;DHT22;11534;51.994;5.692;2023-10-19T01:07:09;11.00;99.90
22734;DHT22;11534;51.994;5.692;2023-10-19T01:09:43;11.00;99.90
22734;DHT22;11534;51.994;5.692;2023-10-19T01:12:10;11.10;99.90
22734;DHT22;11534;51.994;5.692;2023-10-19T01:15:13;11.00;99.90
22734;DHT22;11534;51.994;5.692;2023-10-19T01:17:44;11.10;99.90
22734;DHT22;11534;51.994;5.692;2023-10-19T01:20:12;11.10;99.90
22734;DHT22;11534;51.994;5.692;2023-10-19T01:25:15;11.20;99.90
22734;DHT22;11534;51.994;5.692;2023-10-19T01:27:49;11.20;99.90
22734;DHT22;11534;51.994;5.692;2023-10-19T01:30:19;11.20;99.90
22734;DHT22;11534;51.994;5.692;2023-10-19T01:32:45;11.30;99.90
22734;DHT22;11534;51.994;5.692;2023-10-19T01:35:11;11.30;99.90
22734;DHT22;11534;51.994;5.692;2023-10-19T01:37:37;11.30;99.90
22734;DHT22;11534;51.994;5.692;2023-10-19T01:40:04;11.30;99.90
22734;DHT22;11534;51.994;5.692;2023-10-19T01:42:30;11.40;99.90
22734;DHT22;11534;51.994;5.692;2023-10-19T01:44:56;11.40;99.90
22734;DHT22;11534;51.994;5.692;2023-10-19T01:47:22;11.50;99.90
22734;DHT22;11534;51.994;5.692;2023-10-19T01:49:48;11.50;99.90
22734;DHT22;11534;51.994;5.692;2023-10-19T01:52:18;11.50;99.90
22734;DHT22;11534;51.994;5.692;2023-10-19T01:54:43;11.50;99.90
22734;DHT22;11534;51.994;5.692;2023-10-19T01:57:09;11.60;99.90
22734;DHT22;11534;51.994;5.692;2023-10-19T01:59:35;11.60;99.90
22734;DHT22;11534;51.994;5.692;2023-10-19T02:02:01;11.60;99.90
22734;DHT22;11534;51.994;5.692;2023-10-19T02:04:28;11.60;99.90
22734;DHT22;11534;51.994;5.692;2023-10-19T02:06:53;11.60;99.90
22734;DHT22;11534;51.994;5.692;2023-10-19T02:09:20;11.60;99.90
22734;DHT22;11534;51.994;5.692;2023-10-19T02:11:53;11.70;99.90
22734;DHT22;11534;51.994;5.692;2023-10-19T02:14:21;11.70;99.90
22734;DHT22;11534;51.994;5.692;2023-10-19T02:16:51;11.70;99.90
22734;DHT22;11534;51.994;5.692;2023-10-19T02:19:19;11.70;99.90
22734;DHT22;11534;51.994;5.692;2023-10-19T02:21:52;11.70;99.90
22734;DHT22;11534;51.994;5.692;2023-10-19T02:24:19;11.80;99.90
22734;DHT22;11534;51.994;5.692;2023-10-19T02:26:48;11.80;99.90
22734;DHT22;11534;51.994;5.692;2023-10-19T02:29:14;11.90;99.90
22734;DHT22;11534;51.994;5.692;2023-10-19T02:31:41;11.90;99.90
22734;DHT22;11534;51.994;5.692;2023-10-19T02:34:08;11.90;99.90
22734;DHT22;11534;51.994;5.692;2023-10-19T02:36:36;12.00;99.90
22734;DHT22;11534;51.994;5.692;2023-10-19T02:39:04;12.00;99.90
22734;DHT22;11534;51.994;5.692;2023-10-19T02:41:37;12.00;99.90
22734;DHT22;11534;51.994;5.692;2023-10-19T02:44:07;12.10;99.90
22734;DHT22;11534;51.994;5.692;2023-10-19T02:46:54;12.10;99.90
22734;DHT22;11534;51.994;5.692;2023-10-19T02:49:31;12.10;99.90
22734;DHT22;11534;51.994;5.692;2023-10-19T02:51:57;12.10;99.90
22734;DHT22;11534;51.994;5.692;2023-10-19T02:54:29;12.20;99.90
22734;DHT22;11534;51.994;5.692;2023-10-19T02:56:58;12.10;99.90
22734;DHT22;11534;51.994;5.692;2023-10-19T02:59:27;12.20;99.90
22734;DHT22;11534;51.994;5.692;2023-10-19T03:01:58;12.30;99.90
22734;DHT22;11534;51.994;5.692;2023-10-19T03:04:43;12.30;99.90
22734;DHT22;11534;51.994;5.692;2023-10-19T03:07:09;12.30;99.90
22734;DHT22;11534;51.994;5.692;2023-10-19T03:09:38;12.30;99.90
22734;DHT22;11534;51.994;5.692;2023-10-19T03:12:20;12.30;99.90
22734;DHT22;11534;51.994;5.692;2023-10-19T03:14:50;12.40;99.90
22734;DHT22;11534;51.994;5.692;2023-10-19T03:17:16;12.40;99.90
22734;DHT22;11534;51.994;5.692;2023-10-19T03:19:42;12.30;99.90
22734;DHT22;11534;51.994;5.692;2023-10-19T03:22:07;12.30;99.90
22734;DHT22;11534;51.994;5.692;2023-10-19T03:24:34;12.30;99.90
22734;DHT22;11534;51.994;5.692;2023-10-19T03:27:07;12.30;99.90
22734;DHT22;11534;51.994;5.692;2023-10-19T03:29:47;12.40;99.90
22734;DHT22;11534;51.994;5.692;2023-10-19T03:32:14;12.40;99.90
22734;DHT22;11534;51.994;5.692;2023-10-19T03:34:41;12.40;99.90
22734;DHT22;11534;51.994;5.692;2023-10-19T03:37:12;12.40;99.90
22734;DHT22;11534;51.994;5.692;2023-10-19T03:39:41;12.60;99.90
22734;DHT22;11534;51.994;5.692;2023-10-19T03:42:07;12.60;99.90
22734;DHT22;11534;51.994;5.692;2023-10-19T03:44:33;12.60;99.90
22734;DHT22;11534;51.994;5.692;2023-10-19T03:47:05;12.60;99.90
22734;DHT22;11534;51.994;5.692;2023-10-19T03:49:37;12.60;99.90
22734;DHT22;11534;51.994;5.692;2023-10-19T03:52:05;12.50;99.90
22734;DHT22;11534;51.994;5.692;2023-10-19T03:54:33;12.50;99.90
22734;DHT22;11534;51.994;5.692;2023-10-19T03:57:10;12.50;99.90
22734;DHT22;11534;51.994;5.692;2023-10-19T03:59:46;12.50;99.90
22734;DHT22;11534;51.994;5.692;2023-10-19T04:02:12;12.50;99.90
22734;DHT22;11534;51.994;5.692;2023-10-19T04:04:42;12.50;99.90
22734;DHT22;11534;51.994;5.692;2023-10-19T04:07:18;12.50;99.90
22734;DHT22;11534;51.994;5.692;2023-10-19T04:09:44;12.60;99.90
22734;DHT22;11534;51.994;5.692;2023-10-19T04:12:28;12.60;99.90
22734;DHT22;11534;51.994;5.692;2023-10-19T04:14:57;12.60;99.90
22734;DHT22;11534;51.994;5.692;2023-10-19T04:17:23;12.60;99.90
22734;DHT22;11534;51.994;5.692;2023-10-19T04:19:50;12.70;99.90
22734;DHT22;11534;51.994;5.692;2023-10-19T04:22:20;12.60;99.90
22734;DHT22;11534;51.994;5.692;2023-10-19T04:24:53;12.60;99.90
22734;DHT22;11534;51.994;5.692;2023-10-19T04:27:19;12.60;99.90
22734;DHT22;11534;51.994;5.692;2023-10-19T04:29:48;12.60;99.90
22734;DHT22;11534;51.994;5.692;2023-10-19T04:32:15;12.60;99.90
22734;DHT22;11534;51.994;5.692;2023-10-19T04:34:48;12.60;99.90
22734;DHT22;11534;51.994;5.692;2023-10-19T04:37:14;12.60;99.90
22734;DHT22;11534;51.994;5.692;2023-10-19T04:39:44;12.70;99.90
22734;DHT22;11534;51.994;5.692;2023-10-19T04:42:10;12.70;99.90
22734;DHT22;11534;51.994;5.692;2023-10-19T04:44:35;12.70;99.90
22734;DHT22;11534;51.994;5.692;2023-10-19T04:47:01;12.60;99.90
22734;DHT22;11534;51.994;5.692;2023-10-19T04:49:26;12.60;99.90
22734;DHT22;11534;51.994;5.692;2023-10-19T04:51:53;12.60;99.90
22734;DHT22;11534;51.994;5.692;2023-10-19T04:54:19;12.70;99.90
22734;DHT22;11534;51.994;5.692;2023-10-19T04:56:44;12.60;99.90
22734;DHT22;11534;51.994;5.692;2023-10-19T04:59:10;12.60;99.90
22734;DHT22;11534;51.994;5.692;2023-10-19T05:01:36;12.60;99.90
22734;DHT22;11534;51.994;5.692;2023-10-19T05:04:02;12.60;99.90
22734;DHT22;11534;51.994;5.692;2023-10-19T05:06:28;12.50;99.90
22734;DHT22;11534;51.994;5.692;2023-10-19T05:08:54;12.50;99.90
22734;DHT22;11534;51.994;5.692;2023-10-19T05:11:20;12.40;99.90
22734;DHT22;11534;51.994;5.692;2023-10-19T05:13:45;12.40;99.90
22734;DHT22;11534;51.994;5.692;2023-10-19T05:16:11;12.40;99.90
22734;DHT22;11534;51.994;5.692;2023-10-19T05:18:37;12.30;99.90
22734;DHT22;11534;51.994;5.692;2023-10-19T05:21:02;12.30;99.90
22734;DHT22;11534;51.994;5.692;2023-10-19T05:23:29;12.30;99.90
22734;DHT22;11534;51.994;5.692;2023-10-19T05:26:03;12.30;99.90
22734;DHT22;11534;51.994;5.692;2023-10-19T05:28:30;12.30;99.90
22734;DHT22;11534;51.994;5.692;2023-10-19T05:30:56;12.40;99.90
22734;DHT22;11534;51.994;5.692;2023-10-19T05:33:22;12.50;99.90
22734;DHT22;11534;51.994;5.692;2023-10-19T05:35:49;12.50;99.90
22734;DHT22;11534;51.994;5.692;2023-10-19T05:38:16;12.40;99.90
22734;DHT22;11534;51.994;5.692;2023-10-19T05:40:42;12.40;99.90
22734;DHT22;11534;51.994;5.692;2023-10-19T05:43:11;12.40;99.90
22734;DHT22;11534;51.994;5.692;2023-10-19T05:45:38;12.40;99.90
22734;DHT22;11534;51.994;5.692;2023-10-19T05:48:04;12.40;99.90
22734;DHT22;11534;51.994;5.692;2023-10-19T05:50:35;12.50;99.90
22734;DHT22;11534;51.994;5.692;2023-10-19T05:53:02;12.50;99.90
22734;DHT22;11534;51.994;5.692;2023-10-19T05:55:28;12.60;99.90
22734;DHT22;11534;51.994;5.692;2023-10-19T05:57:54;12.50;99.90
22734;DHT22;11534;51.994;5.692;2023-10-19T06:00:20;12.50;99.90
22734;DHT22;11534;51.994;5.692;2023-10-19T06:02:48;12.60;99.90
22734;DHT22;11534;51.994;5.692;2023-10-19T06:05:17;12.60;99.90
22734;DHT22;11534;51.994;5.692;2023-10-19T06:07:44;12.70;99.90
22734;DHT22;11534;51.994;5.692;2023-10-19T06:10:12;12.60;99.90
22734;DHT22;11534;51.994;5.692;2023-10-19T06:12:42;12.60;99.90
22734;DHT22;11534;51.994;5.692;2023-10-19T06:15:09;12.60;99.90
22734;DHT22;11534;51.994;5.692;2023-10-19T06:17:39;12.60;99.90
22734;DHT22;11534;51.994;5.692;2023-10-19T06:20:07;12.60;99.90
22734;DHT22;11534;51.994;5.692;2023-10-19T06:22:35;12.60;99.90
22734;DHT22;11534;51.994;5.692;2023-10-19T06:25:02;12.70;99.90
22734;DHT22;11534;51.994;5.692;2023-10-19T06:27:30;12.70;99.90
22734;DHT22;11534;51.994;5.692;2023-10-19T06:29:56;12.70;99.90
22734;DHT22;11534;51.994;5.692;2023-10-19T06:32:22;12.70;99.90
22734;DHT22;11534;51.994;5.692;2023-10-19T06:34:48;12.70;99.90
22734;DHT22;11534;51.994;5.692;2023-10-19T06:37:13;12.70;99.90
22734;DHT22;11534;51.994;5.692;2023-10-19T06:39:39;12.70;99.90
22734;DHT22;11534;51.994;5.692;2023-10-19T06:42:08;12.80;99.90
22734;DHT22;11534;51.994;5.692;2023-10-19T06:44:40;12.80;99.90
22734;DHT22;11534;51.994;5.692;2023-10-19T06:47:07;12.80;99.90
22734;DHT22;11534;51.994;5.692;2023-10-19T06:49:33;12.80;99.90
22734;DHT22;11534;51.994;5.692;2023-10-19T06:52:00;12.80;99.90
22734;DHT22;11534;51.994;5.692;2023-10-19T06:54:25;12.80;99.90
22734;DHT22;11534;51.994;5.692;2023-10-19T06:56:54;12.80;99.90
22734;DHT22;11534;51.994;5.692;2023-10-19T06:59:20;12.80;99.90
22734;DHT22;11534;51.994;5.692;2023-10-19T07:01:46;12.80;99.90
22734;DHT22;11534;51.994;5.692;2023-10-19T07:04:12;12.80;99.90
22734;DHT22;11534;51.994;5.692;2023-10-19T07:06:38;12.80;99.90
22734;DHT22;11534;51.994;5.692;2023-10-19T07:09:04;12.90;99.90
22734;DHT22;11534;51.994;5.692;2023-10-19T07:11:32;12.90;99.90
22734;DHT22;11534;51.994;5.692;2023-10-19T07:13:59;12.90;99.90
22734;DHT22;11534;51.994;5.692;2023-10-19T07:16:25;13.00;99.90
22734;DHT22;11534;51.994;5.692;2023-10-19T07:18:52;13.00;99.90
22734;DHT22;11534;51.994;5.692;2023-10-19T07:21:19;13.00;99.90
22734;DHT22;11534;51.994;5.692;2023-10-19T07:23:46;13.00;99.90
22734;DHT22;11534;51.994;5.692;2023-10-19T07:26:14;13.10;99.90
22734;DHT22;11534;51.994;5.692;2023-10-19T07:28:40;13.10;99.90
22734;DHT22;11534;51.994;5.692;2023-10-19T07:31:06;13.10;99.90
22734;DHT22;11534;51.994;5.692;2023-10-19T07:33:40;13.10;99.90
22734;DHT22;11534;51.994;5.692;2023-10-19T07:36:14;13.10;99.90
22734;DHT22;11534;51.994;5.692;2023-10-19T07:38:40;13.10;99.90
22734;DHT22;11534;51.994;5.692;2023-10-19T07:41:08;13.10;99.90
22734;DHT22;11534;51.994;5.692;2023-10-19T07:43:35;13.10;99.90
22734;DHT22;11534;51.994;5.692;2023-10-19T07:46:01;13.10;99.90
22734;DHT22;11534;51.994;5.692;2023-10-19T07:48:26;13.20;99.90
22734;DHT22;11534;51.994;5.692;2023-10-19T07:50:52;13.20;99.90
22734;DHT22;11534;51.994;5.692;2023-10-19T07:53:19;13.20;99.90
22734;DHT22;11534;51.994;5.692;2023-10-19T07:55:45;13.20;99.90
22734;DHT22;11534;51.994;5.692;2023-10-19T07:58:11;13.20;99.90
22734;DHT22;11534;51.994;5.692;2023-10-19T08:00:37;13.30;99.90
22734;DHT22;11534;51.994;5.692;2023-10-19T08:03:05;13.30;99.90
22734;DHT22;11534;51.994;5.692;2023-10-19T08:05:31;13.30;99.90
22734;DHT22;11534;51.994;5.692;2023-10-19T08:07:57;13.40;99.90
22734;DHT22;11534;51.994;5.692;2023-10-19T08:10:24;13.40;99.90
22734;DHT22;11534;51.994;5.692;2023-10-19T08:12:52;13.40;99.90
22734;DHT22;11534;51.994;5.692;2023-10-19T08:15:18;13.40;99.90
22734;DHT22;11534;51.994;5.692;2023-10-19T08:17:46;13.40;99.90
22734;DHT22;11534;51.994;5.692;2023-10-19T08:20:13;13.40;99.90
22734;DHT22;11534;51.994;5.692;2023-10-19T08:22:58;13.40;99.90
22734;DHT22;11534;51.994;5.692;2023-10-19T08:25:25;13.40;99.90
22734;DHT22;11534;51.994;5.692;2023-10-19T08:27:53;13.50;99.90
22734;DHT22;11534;51.994;5.692;2023-10-19T08:30:22;13.50;99.90
22734;DHT22;11534;51.994;5.692;2023-10-19T08:32:48;13.60;99.90
22734;DHT22;11534;51.994;5.692;2023-10-19T08:35:15;13.60;99.90
22734;DHT22;11534;51.994;5.692;2023-10-19T08:37:43;13.60;99.90
22734;DHT22;11534;51.994;5.692;2023-10-19T08:40:12;13.60;99.90
22734;DHT22;11534;51.994;5.692;2023-10-19T08:42:45;13.70;99.90
22734;DHT22;11534;51.994;5.692;2023-10-19T08:45:11;13.70;99.90
22734;DHT22;11534;51.994;5.692;2023-10-19T08:47:54;13.80;99.90
22734;DHT22;11534;51.994;5.692;2023-10-19T08:50:27;13.70;99.90
22734;DHT22;11534;51.994;5.692;2023-10-19T08:52:56;13.80;99.90
22734;DHT22;11534;51.994;5.692;2023-10-19T08:55:22;13.80;99.90
22734;DHT22;11534;51.994;5.692;2023-10-19T08:57:49;13.90;99.90
22734;DHT22;11534;51.994;5.692;2023-10-19T09:00:16;14.00;99.90
22734;DHT22;11534;51.994;5.692;2023-10-19T09:02:45;14.00;99.90
22734;DHT22;11534;51.994;5.692;2023-10-19T09:05:11;14.00;99.90
22734;DHT22;11534;51.994;5.692;2023-10-19T09:07:47;14.10;99.90
22734;DHT22;11534;51.994;5.692;2023-10-19T09:10:16;14.20;99.90
22734;DHT22;11534;51.994;5.692;2023-10-19T09:12:42;14.20;99.90
22734;DHT22;11534;51.994;5.692;2023-10-19T09:15:29;14.20;99.90
22734;DHT22;11534;51.994;5.692;2023-10-19T09:18:19;14.20;99.90
22734;DHT22;11534;51.994;5.692;2023-10-19T09:20:51;14.20;99.90
22734;DHT22;11534;51.994;5.692;2023-10-19T09:23:33;14.30;99.90
22734;DHT22;11534;51.994;5.692;2023-10-19T09:26:00;14.40;99.90
22734;DHT22;11534;51.994;5.692;2023-10-19T09:28:29;14.50;99.90
22734;DHT22;11534;51.994;5.692;2023-10-19T09:30:55;14.40;99.90
22734;DHT22;11534;51.994;5.692;2023-10-19T09:33:22;14.50;99.90
22734;DHT22;11534;51.994;5.692;2023-10-19T09:35:50;14.50;99.90
22734;DHT22;11534;51.994;5.692;2023-10-19T09:38:19;14.70;99.90
22734;DHT22;11534;51.994;5.692;2023-10-19T09:40:49;14.80;99.90
22734;DHT22;11534;51.994;5.692;2023-10-19T09:43:16;14.80;99.90
22734;DHT22;11534;51.994;5.692;2023-10-19T09:45:49;15.00;99.90
22734;DHT22;11534;51.994;5.692;2023-10-19T09:48:19;15.20;99.90
22734;DHT22;11534;51.994;5.692;2023-10-19T09:50:52;15.30;99.90
22734;DHT22;11534;51.994;5.692;2023-10-19T09:53:27;15.40;99.90
22734;DHT22;11534;51.994;5.692;2023-10-19T09:55:57;15.60;99.90
22734;DHT22;11534;51.994;5.692;2023-10-19T09:58:28;15.80;99.90
22734;DHT22;11534;51.994;5.692;2023-10-19T10:00:57;15.80;99.90
22734;DHT22;11534;51.994;5.692;2023-10-19T10:03:47;15.80;99.90
22734;DHT22;11534;51.994;5.692;2023-10-19T10:06:15;15.90;99.90
22734;DHT22;11534;51.994;5.692;2023-10-19T10:08:44;16.00;99.90
22734;DHT22;11534;51.994;5.692;2023-10-19T10:13:47;16.00;99.90
22734;DHT22;11534;51.994;5.692;2023-10-19T10:16:24;16.10;99.90
22734;DHT22;11534;51.994;5.692;2023-10-19T10:18:51;16.30;99.90
22734;DHT22;11534;51.994;5.692;2023-10-19T10:21:20;16.40;99.90
22734;DHT22;11534;51.994;5.692;2023-10-19T10:23:55;16.40;99.90
22734;DHT22;11534;51.994;5.692;2023-10-19T10:26:26;16.40;99.90
22734;DHT22;11534;51.994;5.692;2023-10-19T10:29:12;16.40;99.90
22734;DHT22;11534;51.994;5.692;2023-10-19T10:31:47;16.40;99.90
22734;DHT22;11534;51.994;5.692;2023-10-19T10:37:11;16.40;99.90
22734;DHT22;11534;51.994;5.692;2023-10-19T10:39:40;16.40;99.90
22734;DHT22;11534;51.994;5.692;2023-10-19T10:42:10;16.40;99.90
22734;DHT22;11534;51.994;5.692;2023-10-19T10:44:47;16.40;99.90
22734;DHT22;11534;51.994;5.692;2023-10-19T10:47:20;16.50;99.90
22734;DHT22;11534;51.994;5.692;2023-10-19T10:50:01;16.50;99.90
22734;DHT22;11534;51.994;5.692;2023-10-19T10:52:36;16.50;99.90
22734;DHT22;11534;51.994;5.692;2023-10-19T10:55:13;16.50;99.90
22734;DHT22;11534;51.994;5.692;2023-10-19T10:57:41;16.40;99.90
22734;DHT22;11534;51.994;5.692;2023-10-19T11:00:12;16.40;99.90
22734;DHT22;11534;51.994;5.692;2023-10-19T11:02:42;16.30;99.90
22734;DHT22;11534;51.994;5.692;2023-10-19T11:05:16;16.30;99.90
22734;DHT22;11534;51.994;5.692;2023-10-19T11:08:09;16.30;99.90
22734;DHT22;11534;51.994;5.692;2023-10-19T11:10:46;16.30;99.90
22734;DHT22;11534;51.994;5.692;2023-10-19T11:13:15;16.40;99.90
22734;DHT22;11534;51.994;5.692;2023-10-19T11:15:52;16.30;99.90
22734;DHT22;11534;51.994;5.692;2023-10-19T11:18:38;16.40;99.90
22734;DHT22;11534;51.994;5.692;2023-10-19T11:21:12;16.60;99.90
22734;DHT22;11534;51.994;5.692;2023-10-19T11:23:46;17.10;99.90
22734;DHT22;11534;51.994;5.692;2023-10-19T11:26:22;17.80;99.90
22734;DHT22;11534;51.994;5.692;2023-10-19T11:29:00;18.10;99.90
22734;DHT22;11534;51.994;5.692;2023-10-19T11:31:35;18.10;99.90
22734;DHT22;11534;51.994;5.692;2023-10-19T11:34:05;18.00;99.90
22734;DHT22;11534;51.994;5.692;2023-10-19T11:36:31;17.80;99.90
22734;DHT22;11534;51.994;5.692;2023-10-19T11:38:56;17.80;99.90
22734;DHT22;11534;51.994;5.692;2023-10-19T11:41:23;17.90;99.90
22734;DHT22;11534;51.994;5.692;2023-10-19T11:43:49;18.00;99.90
22734;DHT22;11534;51.994;5.692;2023-10-19T11:46:16;17.80;99.90
22734;DHT22;11534;51.994;5.692;2023-10-19T11:48:48;17.70;99.90
22734;DHT22;11534;51.994;5.692;2023-10-19T11:51:14;17.60;99.90
22734;DHT22;11534;51.994;5.692;2023-10-19T11:53:41;17.90;99.90
22734;DHT22;11534;51.994;5.692;2023-10-19T11:56:09;18.20;99.90
22734;DHT22;11534;51.994;5.692;2023-10-19T11:58:35;18.50;99.90
22734;DHT22;11534;51.994;5.692;2023-10-19T12:01:03;18.80;99.90
22734;DHT22;11534;51.994;5.692;2023-10-19T12:03:37;18.70;99.90
22734;DHT22;11534;51.994;5.692;2023-10-19T12:06:05;18.60;99.90
22734;DHT22;11534;51.994;5.692;2023-10-19T12:08:34;18.20;99.90
22734;DHT22;11534;51.994;5.692;2023-10-19T12:11:01;18.20;99.90
22734;DHT22;11534;51.994;5.692;2023-10-19T12:13:28;18.10;99.90
22734;DHT22;11534;51.994;5.692;2023-10-19T12:15:54;18.00;99.90
22734;DHT22;11534;51.994;5.692;2023-10-19T12:18:23;17.90;99.90
22734;DHT22;11534;51.994;5.692;2023-10-19T12:20:51;17.90;99.90
22734;DHT22;11534;51.994;5.692;2023-10-19T12:23:22;17.80;99.90
